Amunt
Inicio > meteoXarxa
Fes-te'n soci

METEOXARXA

Catí
Ubicació poble
Comarca l′Alt Maestrat
Altitud (msnm) 661
Posició geogràfica 40° 28' 18.84" N, 00° 1' 18.12" E
Model Davis Vantage Pro2
Presa de dades
Font de les dades Meteocatí
Estadístiques. Resum
Data Temperatura (ºC) Humitat (%) Pressió (hPa) Vent (km/h) Precipit. (mm)
Mínima Mitjana Màxima Mínima Mitjana Màxima Mínima Mitjana Màxima Predom. Mitjana Ràfega màxima Total Dies de pluja
Mínima Mitjana Màxima Mínima Mitjana Màxima
Últimes dades diàries
24-03-2017 1,7     5,0     8,3 62,0 77,0 92,0 1.012,0 1.013,5 1.015,0 37,0 0,0  
23-03-2017 3,5     7,2     10,9 32,0 60,0 88,0 1.007,0 1.010,0 1.013,0 40,0 1,4  
22-03-2017 5,1     9,6     14,1 60,0 76,0 92,0 1.007,0 1.011,0 1.015,0 40,0 0,0  
21-03-2017 8,2     12,3     16,4 58,0 70,5 83,0 1.012,0 1.013,5 1.015,0 48,0 0,0  
20-03-2017 6,8     12,8     18,7 41,0 61,0 81,0 1.013,0 1.014,5 1.016,0 23,0 0,0  
19-03-2017 4,9     12,6     20,3 26,0 52,0 78,0 1.015,0 1.018,0 1.021,0 21,0 0,0  
18-03-2017 2,7     11,6     20,5 21,0 52,0 83,0 1.019,0 1.021,0 1.023,0 21,0 0,0  
17-03-2017 2,6     9,9     17,2 27,0 56,0 85,0 1.021,0 1.022,5 1.024,0 21,0 0,0  
16-03-2017 3,1     9,9     16,8 26,0 59,0 92,0 1.023,0 1.025,0 1.027,0 23,0 0,0  
15-03-2017 4,0     10,1     16,1 51,0 70,5 90,0 1.025,0 1.027,5 1.030,0 23,0 0,2  
14-03-2017 5,6     10,9     16,3 51,0 69,5 88,0 1.027,0 1.029,0 1.031,0 29,0 0,2  
13-03-2017 3,8     6,5     9,2 79,0 85,5 92,0 1.014,0 1.021,0 1.028,0 61,0 28,0  
12-03-2017 5,5     12,7     19,8 40,0 61,5 83,0 1.012,0 1.013,5 1.015,0 77,0 5,6  
11-03-2017 9,4     16,2     23,0 30,0 56,5 83,0 1.014,0 1.016,0 1.018,0 19,0 0,0  
10-03-2017 11,7     19,1     26,6 17,0 45,0 73,0 1.016,0 1.019,0 1.022,0 53,0 0,0  
09-03-2017 11,1     19,0     26,9 20,0 38,5 57,0 1.022,0 1.024,5 1.027,0 29,0 0,0  
08-03-2017 10,3     15,1     19,9 38,0 55,0 72,0 1.022,0 1.024,5 1.027,0 79,0 0,0  
07-03-2017 9,0     13,2     17,3 39,0 52,0 65,0 1.019,0 1.020,5 1.022,0 89,0 0,0  
06-03-2017 8,1     13,2     18,4 46,0 65,0 84,0 1.017,0 1.019,5 1.022,0 76,0 0,0  
05-03-2017 3,1     9,5     15,9 50,0 63,0 76,0 1.013,0 1.016,5 1.020,0 45,0 0,0  
04-03-2017 4,4     8,2     12,1 36,0 59,5 83,0 995,0 1.004,0 1.013,0 81,0 2,8  
03-03-2017 2,5     6,5     10,6 76,0 84,5 93,0 995,0 1.006,0 1.017,0 64,0 12,2  
02-03-2017 4,7     10,5     16,3 51,0 71,5 92,0 1.017,0 1.018,5 1.020,0 42,0 0,0  
01-03-2017 4,5     9,6     14,6 46,0 69,0 92,0 1.017,0 1.018,5 1.020,0 29,0 0,0  
28-02-2017 6,5     10,6     14,6 48,0 62,5 77,0 1.009,0 1.013,0 1.017,0 58,0 0,0  
27-02-2017 3,7     9,7     15,6 53,0 73,5 94,0 1.012,0 1.015,5 1.019,0 23,0 0,2  
26-02-2017 0,8     7,1     13,4 60,0 79,5 99,0 1.019,0 1.020,5 1.022,0 21,0 0,2  
25-02-2017 5,2     9,3     13,4 36,0 63,0 90,0 1.017,0 1.019,5 1.022,0 61,0 0,0  
24-02-2017 5,8     8,7     11,6 57,0 74,5 92,0 1.010,0 1.013,5 1.017,0 76,0 1,2  
23-02-2017 6,9     12,3     17,8 55,0 69,5 84,0 1.013,0 1.017,0 1.021,0 23,0 0,0  
22-02-2017 3,2     9,9     16,6 33,0 57,5 82,0 1.021,0 1.022,5 1.024,0 23,0 0,0  
21-02-2017 2,3     9,1     15,9 24,0 55,0 86,0 1.023,0 1.025,0 1.027,0 21,0 0,0  
Dades del mes en curs (actualitzades fins l'últim dia disponible)
03/2017 1,7 5,7 11,7 11,3 8,3 16,9 26,9 17,0 62,9 93,0 995,0 1.017,8 1.031,0   89,0 50,4  
Últimes dades mensuals
02/2017 -0,2 4,0 7,8 8,6 7,8 13,1 17,8 55,0 72,1 92,0 1.009,5 1.018,9 1.032,0 108,0 29,6 16
01/2017 -3,6 2,6 9,5 6,3 2,6 9,9 17,7 42,5 66,5 92,0 1.013,5 1.020,5 1.030,5 109,0 142,4 11
12/2016 -1,5 4,4 10,3 8,6 6,3 12,7 20,0 42,5 76,3 95,0 1.016,0 1.027,8 1.037,0 68,0 111,0 15
11/2016 2,4 7,1 11,1 10,7 8,7 14,3 22,6 57,0 71,7 92,0 1.002,5 1.015,8 1.030,5 81,0 94,4 11
10/2016 6,8 11,1 14,2 15,6 12,9 20,0 24,9 61,0 76,3 89,0 1.001,5 1.017,0 1.029,5 64,0 36,8 17
09/2016 8,6 14,7 23,4 19,7 17,7 24,6 35,7 32,0 66,8 83,0 1.010,5 1.017,7 1.027,0 85,0 62,4 13
08/2016 11,8 15,7 19,1 21,5 22,5 27,3 30,5 53,5 66,4 81,0 1.009,5 1.017,7 1.023,5 64,0 4,4 3
07/2016 12,2 16,2 21,7 22,2 24,1 28,1 31,7 40,0 59,8 74,0 1.012,5 1.016,5 1.020,5 68,0 3,8 5
06/2016 11,2 14,1 18,5 19,5 19,9 24,9 30,4 47,0 62,0 78,0 1.001,5 1.015,1 1.023,0 84,0 14,8 7
05/2016 4,5 9,8 13,9 14,1 11,7 18,7 24,6 41,5 68,6 94,5 1.005,5 1.014,4 1.023,0 81,0 83,0 12
04/2016 2,1 6,6 10,2 11,0 9,7 15,5 23,4 53,0 69,0 88,5 1.006,5 1.013,3 1.020,0 100,0 65,2 12
03/2016 2,6 4,8 12,2 8,7 5,9 12,7 19,8 45,5 66,6 94,0 1.003,0 1.014,4 1.022,5 114,0 49,2 11
02/2016 -2,4 4,1 12,4 8,6 6,1 13,1 19,5 52,5 64,5 85,0 991,0 1.016,6 1.035,0 116,0 40,4 9
Dades de l'any en curs (actualitzades fins l'últim dia disponible)
2017 -3,6 4,0 11,7 8,5 2,6 13,0 26,9 16,0 67,3 100,0 995,0 1.019,2 1.034,0   109,0 222,4  
Últimes dades anuals
2008 -0,9 3,8 6,8 10,3 19,0 17,9 127,0 853,1 20
2009 -4,6 9,3 19,6 13,9 0,4 19,0 36,1 10,7 136,8 620,5 133
2010 -4,0 8,7 25,2 13,0 -0,6 17,6 37,6 26,5 66,5 94,5 9,9 109,4 664,0 132
2011 -5,0 9,5 19,6 14,1 3,4 18,8 32,4 38,5 69,9 96,5 8,5 111,0 814,6 124
2012 -5,5 9,1 12,7 13,9 17,6 18,7 34,3 52,6 65,4 78,0 1.014,8 1.017,0 1.019,3 10,1 121,0 587,0 110
2013 -3,4 9,0 12,9 13,5 16,4 18,1 30,4 59,0 67,4 89,0 1.005,7 1.016,5 1.027,5 13,5 119,0 705,4 112
2014 -2,0 10,0 20,7 14,5 6,5 19,1 32,2 19,5 68,5 93,0 994,0 1.014,8 1.033,0 126,0 807,4 132
2015 -2,9 9,8 15,7 14,5 16,8 19,2 36,5 57,9 66,9 76,0 1.014,3 1.018,6 1.030,5 2,7 126,0 1.003,4 120
2016 -2,4 9,4 23,4 14,1 5,9 18,8 35,7 59,8 68,1 76,3 1.013,3 1.017,2 1.027,8 116,0 571,0 122